Time;durP1;ratioP1;P1;durP2;ratioP2;P2;SDS_P1;SDS_P2;PMS_P1;PMS_P2;Temp;Humidity;BMP_temperature;BMP_pressure;BME280_temperature;BME280_humidity;BME280_pressure;Samples;Min_cycle;Max_cycle;Signal;HPM_P1;HPM_P2
2022/06/11 00:01:13;;;;;;;4.88;1.20;;;20.20;99.90;;;;;;5040448;28;46765;-72
2022/06/11 00:03:40;;;;;;;4.53;1.30;;;20.30;99.90;;;;;;5040706;28;44926;-73
2022/06/11 00:06:08;;;;;;;4.07;1.45;;;20.20;99.90;;;;;;5048262;28;44665;-73
2022/06/11 00:08:35;;;;;;;5.18;1.42;;;20.20;99.90;;;;;;5046377;28;44860;-73
2022/06/11 00:11:02;;;;;;;5.80;1.40;;;20.20;99.90;;;;;;5039725;28;45212;-72
2022/06/11 00:13:28;;;;;;;3.80;1.38;;;20.20;99.90;;;;;;5043630;28;44626;-72
2022/06/11 00:15:57;;;;;;;2.78;1.10;;;20.20;99.90;;;;;;5044101;28;46063;-73
2022/06/11 00:18:25;;;;;;;5.25;1.30;;;20.20;99.90;;;;;;5041794;28;45251;-72
2022/06/11 00:20:52;;;;;;;3.67;1.30;;;20.20;99.90;;;;;;5038041;28;45203;-72
2022/06/11 00:23:19;;;;;;;4.22;1.27;;;20.20;99.90;;;;;;5042094;28;44711;-72
2022/06/11 00:25:47;;;;;;;4.13;1.27;;;20.10;99.90;;;;;;5042905;28;44732;-73
2022/06/11 00:28:14;;;;;;;5.07;1.30;;;20.10;99.90;;;;;;5043091;28;44711;-72
2022/06/11 00:30:41;;;;;;;4.13;1.40;;;20.10;99.90;;;;;;5045137;28;47033;-72
2022/06/11 00:33:09;;;;;;;4.72;1.33;;;20.10;99.90;;;;;;5044359;28;44815;-73
2022/06/11 00:35:38;;;;;;;3.92;1.10;;;20.10;99.90;;;;;;5043757;28;45057;-73
2022/06/11 00:38:05;;;;;;;6.60;1.30;;;20.10;99.90;;;;;;5042442;28;44787;-72
2022/06/11 00:40:35;;;;;;;4.38;1.30;;;20.10;99.90;;;;;;5041410;28;46583;-72
2022/06/11 00:43:03;;;;;;;4.30;1.30;;;20.10;99.90;;;;;;5043133;28;44670;-73
2022/06/11 00:45:33;;;;;;;4.13;1.27;;;20.10;99.90;;;;;;5047482;28;44693;-72
2022/06/11 00:48:03;;;;;;;5.55;1.40;;;20.20;99.90;;;;;;5045911;28;44738;-73
2022/06/11 00:50:37;;;;;;;5.43;1.55;;;20.20;99.90;;;;;;5040901;28;45180;-73
2022/06/11 00:53:11;;;;;;;5.53;1.20;;;20.20;99.90;;;;;;5042854;28;44682;-73
2022/06/11 00:55:42;;;;;;;4.35;1.63;;;20.10;99.90;;;;;;5037654;28;44811;-72
2022/06/11 00:58:14;;;;;;;4.95;1.27;;;20.10;99.90;;;;;;5041760;28;45075;-73
2022/06/11 01:00:44;;;;;;;7.15;1.73;;;20.00;99.90;;;;;;5038312;28;46593;-72
2022/06/11 01:03:13;;;;;;;7.15;1.48;;;20.00;99.90;;;;;;5048168;28;46621;-73
2022/06/11 01:05:45;;;;;;;4.97;1.27;;;20.00;99.90;;;;;;5040634;28;45037;-73
2022/06/11 01:08:47;;;;;;;4.38;1.40;;;20.00;99.90;;;;;;5037484;28;44688;-73
2022/06/11 01:11:30;;;;;;;7.70;2.05;;;20.00;99.90;;;;;;5037489;28;46996;-72
2022/06/11 01:14:11;;;;;;;6.97;1.77;;;19.90;99.90;;;;;;5036318;28;44813;-73
2022/06/11 01:16:46;;;;;;;7.60;1.67;;;19.90;99.90;;;;;;5042261;28;45089;-72
2022/06/11 01:19:38;;;;;;;4.63;1.13;;;19.90;99.90;;;;;;5041920;28;44934;-72
2022/06/11 01:22:21;;;;;;;4.63;1.65;;;19.90;99.90;;;;;;5040114;28;46334;-73
2022/06/11 01:24:58;;;;;;;4.63;1.48;;;19.90;99.90;;;;;;5038409;28;44970;-72
2022/06/11 01:27:37;;;;;;;6.57;1.45;;;19.90;99.90;;;;;;5048859;28;45297;-73
2022/06/11 01:30:08;;;;;;;3.75;1.42;;;19.90;99.90;;;;;;5041217;28;44860;-73
2022/06/11 01:32:51;;;;;;;3.63;1.20;;;19.90;99.90;;;;;;5033664;28;45974;-72
2022/06/11 01:35:27;;;;;;;9.07;2.13;;;19.90;99.90;;;;;;5040439;28;44734;-73
2022/06/11 01:38:02;;;;;;;5.97;1.52;;;19.90;99.90;;;;;;5044807;28;44658;-73
2022/06/11 01:40:38;;;;;;;6.53;1.73;;;19.90;99.90;;;;;;5048316;28;45299;-73
2022/06/11 01:43:22;;;;;;;10.23;1.90;;;19.90;99.90;;;;;;5042634;28;47377;-72
2022/06/11 01:45:52;;;;;;;1.80;1.10;;;19.90;99.90;;;;;;5042454;28;44709;-73
2022/06/11 01:48:23;;;;;;;8.80;1.67;;;19.90;99.90;;;;;;5041053;28;44832;-73
2022/06/11 01:51:09;;;;;;;6.45;2.15;;;19.90;99.90;;;;;;5039864;28;44831;-73
2022/06/11 01:54:00;;;;;;;7.07;1.50;;;19.90;99.90;;;;;;5037075;28;46584;-73
2022/06/11 01:57:06;;;;;;;5.43;1.42;;;19.80;99.90;;;;;;5038328;28;44977;-73
2022/06/11 01:59:56;;;;;;;5.40;1.52;;;19.80;99.90;;;;;;5022161;28;44632;-73
2022/06/11 02:02:37;;;;;;;4.20;1.33;;;19.80;99.90;;;;;;5034922;28;45026;-73
2022/06/11 02:05:10;;;;;;;5.60;1.50;;;19.80;99.90;;;;;;5037022;28;45008;-73
2022/06/11 02:07:47;;;;;;;5.03;1.20;;;19.70;99.90;;;;;;5041203;28;44800;-73
2022/06/11 02:10:20;;;;;;;6.75;1.33;;;19.70;99.90;;;;;;5045390;28;44808;-73
2022/06/11 02:12:52;;;;;;;2.45;1.23;;;19.70;99.90;;;;;;5042980;28;44840;-73
2022/06/11 02:15:25;;;;;;;3.30;1.52;;;19.70;99.90;;;;;;5045841;28;47079;-73
2022/06/11 02:17:57;;;;;;;6.22;1.75;;;19.60;99.90;;;;;;5036131;28;46057;-73
2022/06/11 02:20:29;;;;;;;5.72;1.45;;;19.60;99.90;;;;;;5037618;28;44698;-73
2022/06/11 02:23:00;;;;;;;7.97;1.98;;;19.60;99.90;;;;;;5044045;28;44800;-73
2022/06/11 02:25:31;;;;;;;11.52;1.70;;;19.50;99.90;;;;;;5041723;28;47133;-73
2022/06/11 02:28:01;;;;;;;6.57;1.50;;;19.50;99.90;;;;;;5045343;28;44714;-73
2022/06/11 02:30:31;;;;;;;7.47;1.63;;;19.50;99.90;;;;;;5044613;28;45111;-73
2022/06/11 02:33:00;;;;;;;7.95;1.88;;;19.50;99.90;;;;;;5036280;28;44814;-73
2022/06/11 02:35:32;;;;;;;4.68;1.70;;;19.40;99.90;;;;;;5042651;28;46604;-73
2022/06/11 02:37:59;;;;;;;10.60;1.85;;;19.30;99.90;;;;;;5040404;28;44955;-73
2022/06/11 02:40:31;;;;;;;9.40;1.45;;;19.30;99.90;;;;;;5044034;28;44710;-73
2022/06/11 02:42:59;;;;;;;6.82;1.52;;;19.20;99.90;;;;;;5046177;28;44869;-73
2022/06/11 02:45:26;;;;;;;4.38;1.42;;;19.20;99.90;;;;;;5040916;28;46255;-73
2022/06/11 02:47:54;;;;;;;8.98;1.95;;;19.20;99.90;;;;;;5040665;28;45002;-73
2022/06/11 02:50:25;;;;;;;4.78;1.30;;;19.20;99.90;;;;;;5042545;28;44740;-73
2022/06/11 02:52:52;;;;;;;9.68;2.10;;;19.10;99.90;;;;;;5045359;28;44759;-72
2022/06/11 02:55:19;;;;;;;6.75;1.52;;;19.00;99.90;;;;;;5049480;28;45025;-73
2022/06/11 02:57:46;;;;;;;3.95;1.42;;;19.00;99.90;;;;;;5046218;28;44665;-73
2022/06/11 03:00:17;;;;;;;3.65;1.58;;;19.00;99.90;;;;;;5039290;28;44570;-73
2022/06/11 03:02:48;;;;;;;7.45;1.70;;;18.90;99.90;;;;;;5046452;28;44918;-73
2022/06/11 03:05:16;;;;;;;6.38;1.42;;;18.90;99.90;;;;;;5047671;28;45543;-73
2022/06/11 03:07:44;;;;;;;6.43;1.80;;;18.80;99.90;;;;;;5033708;28;44686;-73
2022/06/11 03:10:13;;;;;;;6.35;1.52;;;18.90;99.90;;;;;;5050297;28;44979;-72
2022/06/11 03:12:40;;;;;;;7.47;1.58;;;18.80;99.90;;;;;;5043500;28;44807;-73
2022/06/11 03:15:07;;;;;;;5.45;1.67;;;18.80;99.90;;;;;;5043796;28;46605;-73
2022/06/11 03:17:34;;;;;;;6.50;2.05;;;18.80;99.90;;;;;;5038490;28;44823;-72
2022/06/11 03:20:01;;;;;;;4.30;1.45;;;18.80;99.90;;;;;;5043398;28;44769;-73
2022/06/11 03:22:28;;;;;;;5.43;1.85;;;18.80;99.90;;;;;;5049667;28;44831;-73
2022/06/11 03:24:56;;;;;;;2.92;1.30;;;18.80;99.90;;;;;;5044356;28;46394;-73
2022/06/11 03:27:24;;;;;;;5.00;1.70;;;21.30;99.90;;;;;;5041495;28;44688;-73
2022/06/11 03:29:51;;;;;;;4.93;1.67;;;18.70;99.90;;;;;;5039778;28;44769;-72
2022/06/11 03:32:18;;;;;;;7.15;1.60;;;18.70;99.90;;;;;;5035989;28;45049;-73
2022/06/11 03:34:46;;;;;;;6.20;1.70;;;18.80;99.90;;;;;;5037515;28;45558;-73
2022/06/11 03:37:13;;;;;;;3.75;1.65;;;18.80;99.90;;;;;;5041178;28;45000;-72
2022/06/11 03:39:40;;;;;;;7.75;1.90;;;18.80;99.90;;;;;;5046295;28;44894;-73
2022/06/11 03:42:09;;;;;;;13.25;1.95;;;18.80;99.90;;;;;;5051523;28;45025;-73
2022/06/11 03:44:36;;;;;;;6.45;1.83;;;18.70;99.90;;;;;;5045875;28;46597;-73
2022/06/11 03:47:03;;;;;;;4.05;1.70;;;18.70;99.90;;;;;;5045648;28;44703;-72
2022/06/11 03:49:30;;;;;;;5.95;1.55;;;18.70;99.90;;;;;;5043267;28;44656;-73
2022/06/11 03:51:57;;;;;;;4.53;1.48;;;18.70;99.90;;;;;;5035530;28;45012;-73
2022/06/11 03:54:24;;;;;;;5.70;1.95;;;18.60;99.90;;;;;;5042741;28;46299;-73
2022/06/11 03:56:52;;;;;;;8.77;1.70;;;18.70;99.90;;;;;;5045337;28;44810;-73
2022/06/11 03:59:21;;;;;;;8.30;1.67;;;18.60;99.90;;;;;;5048178;28;44835;-73
2022/06/11 04:01:49;;;;;;;8.32;1.70;;;18.60;99.90;;;;;;5038714;28;44680;-73
2022/06/11 04:04:19;;;;;;;8.80;1.70;;;18.60;99.90;;;;;;5041254;28;46677;-73
2022/06/11 04:06:48;;;;;;;6.72;1.70;;;18.60;99.90;;;;;;5049542;28;44683;-73
2022/06/11 04:09:18;;;;;;;4.93;1.50;;;18.60;99.90;;;;;;5042166;28;45981;-73
2022/06/11 04:11:45;;;;;;;6.55;1.88;;;18.60;99.90;;;;;;5031793;28;45075;-73
2022/06/11 04:14:12;;;;;;;3.90;1.45;;;18.60;99.90;;;;;;5047628;28;45192;-73
2022/06/11 04:16:43;;;;;;;3.95;2.03;;;18.70;99.90;;;;;;5069931;22;44850;-72
2022/06/11 04:19:16;;;;;;;6.85;2.22;;;18.70;99.90;;;;;;5093621;28;44916;-72
2022/06/11 04:21:43;;;;;;;4.55;1.67;;;18.80;99.90;;;;;;5094554;28;45267;-72
2022/06/11 04:24:10;;;;;;;4.78;1.40;;;18.80;99.90;;;;;;5097557;28;46759;-73
2022/06/11 04:26:42;;;;;;;2.08;1.33;;;18.90;99.90;;;;;;5093844;28;44773;-73
2022/06/11 04:29:10;;;;;;;6.38;2.00;;;18.90;99.90;;;;;;5100272;28;44734;-72
2022/06/11 04:31:38;;;;;;;4.25;1.77;;;18.90;99.90;;;;;;5094790;28;46187;-73
2022/06/11 04:34:07;;;;;;;7.28;1.75;;;18.90;99.90;;;;;;5096352;28;45214;-73
2022/06/11 04:36:36;;;;;;;5.97;1.55;;;18.90;99.90;;;;;;5104163;28;44728;-73
2022/06/11 04:39:05;;;;;;;5.63;2.05;;;18.90;99.90;;;;;;5096512;28;44803;-73
2022/06/11 04:41:32;;;;;;;2.65;1.50;;;18.90;99.90;;;;;;5099724;28;44746;-73
2022/06/11 04:43:59;;;;;;;4.32;1.65;;;19.10;99.90;;;;;;5093204;28;47690;-73
2022/06/11 04:46:27;;;;;;;2.95;1.67;;;19.20;99.90;;;;;;5098636;28;44713;-73
2022/06/11 04:48:53;;;;;;;6.25;1.77;;;19.30;99.90;;;;;;5096062;28;44923;-73
2022/06/11 04:51:22;;;;;;;5.00;1.65;;;19.30;99.90;;;;;;5091429;28;46251;-73
2022/06/11 04:53:50;;;;;;;3.97;1.60;;;19.30;99.90;;;;;;5093858;28;45460;-73
2022/06/11 04:56:21;;;;;;;8.32;1.67;;;19.30;99.90;;;;;;5095155;28;44709;-73
2022/06/11 04:58:48;;;;;;;4.57;1.48;;;19.30;99.90;;;;;;5092866;28;44656;-73
2022/06/11 05:01:16;;;;;;;8.63;1.40;;;19.30;99.90;;;;;;5092408;28;44817;-73
2022/06/11 05:03:43;;;;;;;5.88;1.80;;;19.40;99.90;;;;;;5097506;28;45571;-73
2022/06/11 05:06:11;;;;;;;5.72;1.60;;;19.50;99.90;;;;;;5101325;28;44680;-73
2022/06/11 05:08:40;;;;;;;8.43;2.00;;;19.50;99.90;;;;;;5101497;28;44728;-73
2022/06/11 05:11:07;;;;;;;8.00;1.83;;;19.50;99.90;;;;;;5105508;28;44914;-73
2022/06/11 05:13:34;;;;;;;5.40;1.80;;;19.50;99.90;;;;;;5099680;28;46536;-73
2022/06/11 05:16:01;;;;;;;6.95;1.83;;;19.50;99.90;;;;;;5092559;28;44710;-73
2022/06/11 05:18:29;;;;;;;4.05;1.67;;;19.60;99.90;;;;;;5099995;28;44723;-73
2022/06/11 05:20:56;;;;;;;8.65;1.75;;;19.60;99.90;;;;;;5100847;28;45071;-73
2022/06/11 05:23:23;;;;;;;8.18;1.65;;;19.60;99.90;;;;;;5109536;28;46340;-73
2022/06/11 05:25:51;;;;;;;3.60;1.58;;;19.70;99.90;;;;;;5100772;28;44683;-73
2022/06/11 05:28:22;;;;;;;4.07;1.75;;;19.70;99.90;;;;;;5099811;28;44622;-73
2022/06/11 05:30:49;;;;;;;7.18;1.90;;;19.70;99.90;;;;;;5102830;28;44799;-73
2022/06/11 05:33:16;;;;;;;5.13;1.75;;;19.70;99.90;;;;;;5093682;28;46438;-73
2022/06/11 05:35:45;;;;;;;6.15;1.77;;;19.70;99.90;;;;;;5101593;28;44797;-73
2022/06/11 05:38:15;;;;;;;4.00;1.55;;;19.70;99.90;;;;;;5111235;28;45054;-73
2022/06/11 05:40:44;;;;;;;9.38;1.80;;;19.70;99.90;;;;;;5105024;28;44710;-73
2022/06/11 05:43:14;;;;;;;5.40;1.83;;;19.70;99.90;;;;;;5100438;28;45489;-73
2022/06/11 05:45:44;;;;;;;8.05;2.10;;;19.70;99.90;;;;;;5098760;28;44669;-73
2022/06/11 05:48:11;;;;;;;3.17;1.65;;;19.70;99.90;;;;;;5094511;28;44718;-73
2022/06/11 05:50:42;;;;;;;5.60;1.63;;;19.70;99.90;;;;;;5098875;28;45168;-73
2022/06/11 05:53:10;;;;;;;5.60;1.50;;;19.70;99.90;;;;;;5093411;28;45431;-73
2022/06/11 05:55:40;;;;;;;8.63;1.90;;;19.70;99.90;;;;;;5092823;28;45016;-73
2022/06/11 05:58:09;;;;;;;8.68;1.88;;;19.80;99.90;;;;;;5094974;28;44620;-73
2022/06/11 06:00:39;;;;;;;8.20;1.48;;;19.80;99.90;;;;;;5091926;28;44795;-73
2022/06/11 06:03:06;;;;;;;9.20;1.90;;;19.80;99.90;;;;;;5089833;28;47080;-73
2022/06/11 06:05:34;;;;;;;9.63;1.80;;;19.80;99.90;;;;;;5100126;28;44770;-73
2022/06/11 06:08:01;;;;;;;5.05;1.60;;;19.80;99.90;;;;;;5094861;28;45895;-73
2022/06/11 06:10:29;;;;;;;5.13;1.70;;;19.80;99.90;;;;;;5096500;28;44801;-73
2022/06/11 06:12:56;;;;;;;5.25;1.67;;;19.90;99.90;;;;;;5091839;28;46389;-73
2022/06/11 06:15:26;;;;;;;9.30;1.88;;;19.90;99.90;;;;;;5096435;28;44637;-73
2022/06/11 06:17:54;;;;;;;10.10;1.70;;;19.90;99.90;;;;;;5101905;28;44667;-73
2022/06/11 06:20:23;;;;;;;5.70;1.63;;;19.90;99.90;;;;;;5093251;28;44798;-73
2022/06/11 06:22:51;;;;;;;5.47;1.67;;;19.90;99.90;;;;;;5089340;28;46856;-73
2022/06/11 06:25:20;;;;;;;9.82;1.77;;;20.00;99.90;;;;;;5091436;28;44818;-73
2022/06/11 06:27:47;;;;;;;9.57;2.00;;;20.00;99.90;;;;;;5091611;28;44657;-73
2022/06/11 06:30:15;;;;;;;6.13;1.75;;;19.90;99.90;;;;;;5095710;28;44747;-73
2022/06/11 06:32:42;;;;;;;6.28;1.80;;;19.90;99.90;;;;;;5090760;28;46508;-73
2022/06/11 06:35:11;;;;;;;6.25;1.80;;;19.90;99.90;;;;;;5095740;28;44591;-73
2022/06/11 06:37:38;;;;;;;12.52;2.25;;;19.90;99.90;;;;;;5104180;28;44690;-73
2022/06/11 06:40:06;;;;;;;5.55;1.90;;;19.90;99.90;;;;;;5101710;28;44762;-73
2022/06/11 06:42:33;;;;;;;5.03;2.58;;;19.90;99.90;;;;;;5104259;28;46343;-73
2022/06/11 06:45:00;;;;;;;6.57;2.60;;;19.80;99.90;;;;;;5094524;28;44881;-73
2022/06/11 06:47:27;;;;;;;6.55;2.17;;;19.80;99.90;;;;;;5108609;28;44719;-72
2022/06/11 06:49:54;;;;;;;7.50;2.20;;;19.80;99.90;;;;;;5107991;28;44706;-72
2022/06/11 06:52:23;;;;;;;8.73;2.33;;;19.70;99.90;;;;;;5103021;28;46527;-72
2022/06/11 06:54:49;;;;;;;4.78;2.50;;;19.80;99.90;;;;;;5109485;28;44739;-72
2022/06/11 06:57:16;;;;;;;7.82;2.40;;;19.80;99.90;;;;;;5106384;28;44949;-72
2022/06/11 06:59:43;;;;;;;5.50;1.70;;;19.90;99.90;;;;;;5108824;28;45217;-72
2022/06/11 07:02:10;;;;;;;6.28;1.90;;;19.90;99.90;;;;;;5099941;28;46621;-72
2022/06/11 07:04:37;;;;;;;5.28;1.67;;;19.90;99.90;;;;;;5105288;28;44754;-72
2022/06/11 07:07:05;;;;;;;7.35;1.77;;;20.00;99.90;;;;;;5094325;28;44760;-72
2022/06/11 07:09:33;;;;;;;4.35;1.20;;;20.00;99.90;;;;;;5098321;28;44873;-72
2022/06/11 07:12:00;;;;;;;2.13;1.35;;;20.00;99.90;;;;;;5091734;28;46338;-73
2022/06/11 07:14:27;;;;;;;4.82;1.30;;;20.00;99.90;;;;;;5095442;28;44962;-73
2022/06/11 07:16:59;;;;;;;5.85;1.40;;;20.00;99.90;;;;;;5101125;28;44699;-73
2022/06/11 07:19:32;;;;;;;4.78;1.30;;;20.00;99.90;;;;;;5105175;28;44916;-72
2022/06/11 07:22:06;;;;;;;6.22;1.20;;;20.10;99.90;;;;;;5106594;28;45547;-72
2022/06/11 07:24:38;;;;;;;7.55;1.77;;;20.10;99.90;;;;;;5106007;28;44790;-72
2022/06/11 07:27:08;;;;;;;2.40;1.35;;;20.10;99.90;;;;;;5098478;28;44734;-72
2022/06/11 07:29:39;;;;;;;4.20;1.33;;;20.10;99.90;;;;;;5110102;27;44728;-72
2022/06/11 07:32:10;;;;;;;5.22;1.35;;;20.00;99.90;;;;;;5103852;28;46427;-72
2022/06/11 07:34:38;;;;;;;4.57;1.30;;;20.00;99.90;;;;;;5111912;28;45197;-72
2022/06/11 07:37:05;;;;;;;5.15;1.40;;;20.00;99.90;;;;;;5111916;28;44675;-73
2022/06/11 07:39:32;;;;;;;5.30;1.67;;;20.10;99.90;;;;;;5103130;28;44806;-73
2022/06/11 07:42:00;;;;;;;3.88;1.27;;;20.10;99.90;;;;;;5102308;28;46583;-72
2022/06/11 07:44:27;;;;;;;2.20;1.15;;;20.10;99.90;;;;;;5101593;28;44968;-72
2022/06/11 07:46:54;;;;;;;8.65;1.63;;;20.10;99.90;;;;;;5103438;28;44991;-72
2022/06/11 07:49:21;;;;;;;10.60;1.83;;;20.10;99.90;;;;;;5110887;28;44891;-72
2022/06/11 07:51:48;;;;;;;5.32;1.30;;;20.00;99.90;;;;;;5099493;28;46357;-72
2022/06/11 07:54:15;;;;;;;7.43;1.85;;;20.00;99.90;;;;;;5099529;28;44776;-75
2022/06/11 07:56:42;;;;;;;5.18;1.55;;;20.00;99.90;;;;;;5104565;28;44969;-76
2022/06/11 07:59:10;;;;;;;4.93;1.35;;;20.10;99.90;;;;;;5105515;28;46227;-74
2022/06/11 08:01:37;;;;;;;5.88;1.55;;;20.20;99.90;;;;;;5107864;28;46311;-76
2022/06/11 08:04:05;;;;;;;7.03;1.60;;;20.10;99.90;;;;;;5106989;28;44710;-76
2022/06/11 08:06:32;;;;;;;5.38;1.35;;;20.10;99.90;;;;;;5101620;28;44778;-76
2022/06/11 08:09:01;;;;;;;6.38;1.65;;;20.00;99.90;;;;;;5101305;28;46190;-77
2022/06/11 08:11:28;;;;;;;6.07;1.60;;;19.90;99.90;;;;;;5103748;28;47405;-77
2022/06/11 08:13:55;;;;;;;6.13;1.63;;;20.00;99.90;;;;;;5104233;28;44775;-76
2022/06/11 08:16:24;;;;;;;3.92;1.38;;;20.00;99.90;;;;;;5103479;28;44751;-77
2022/06/11 08:18:51;;;;;;;10.13;2.38;;;20.00;99.90;;;;;;5105616;28;44953;-77
2022/06/11 08:21:18;;;;;;;5.18;1.67;;;20.10;99.90;;;;;;5105019;28;46487;-76
2022/06/11 08:23:46;;;;;;;7.95;1.30;;;20.20;99.90;;;;;;5099018;28;44721;-76
2022/06/11 08:26:12;;;;;;;7.22;1.25;;;20.30;99.90;;;;;;5103946;28;44662;-75
2022/06/11 08:28:40;;;;;;;3.75;1.60;;;20.30;99.90;;;;;;5096035;28;44644;-76
2022/06/11 08:31:06;;;;;;;3.28;1.45;;;20.40;99.90;;;;;;5092893;28;46580;-76
2022/06/11 08:33:35;;;;;;;10.48;1.30;;;20.40;99.90;;;;;;5107275;28;44704;-77
2022/06/11 08:36:03;;;;;;;2.38;1.30;;;20.40;99.90;;;;;;5104963;28;44693;-77
2022/06/11 08:38:30;;;;;;;2.25;1.33;;;20.30;99.90;;;;;;5104301;28;45552;-77
2022/06/11 08:40:58;;;;;;;4.28;1.05;;;20.40;99.90;;;;;;5099467;27;46340;-77
2022/06/11 08:43:29;;;;;;;4.55;1.58;;;20.50;99.90;;;;;;5099396;28;44723;-77
2022/06/11 08:45:59;;;;;;;3.53;1.10;;;20.50;99.90;;;;;;5104583;28;44962;-77
2022/06/11 08:48:39;;;;;;;4.22;1.30;;;20.50;99.90;;;;;;5102683;28;45325;-77
2022/06/11 08:51:17;;;;;;;3.25;1.45;;;20.60;99.90;;;;;;5098627;28;46316;-77
2022/06/11 08:53:44;;;;;;;3.13;1.20;;;20.60;99.90;;;;;;5106131;28;45031;-77
2022/06/11 08:56:19;;;;;;;3.30;1.23;;;20.60;99.90;;;;;;5097767;28;44813;-77
2022/06/11 08:59:11;;;;;;;4.43;1.35;;;20.70;99.90;;;;;;5100953;28;44800;-78
2022/06/11 09:01:50;;;;;;;3.33;1.23;;;20.70;99.90;;;;;;5093311;28;45385;-77
2022/06/11 09:04:38;;;;;;;4.80;1.52;;;20.70;99.90;;;;;;5099945;28;44821;-78
2022/06/11 09:07:30;;;;;;;5.95;1.25;;;20.70;99.90;;;;;;5097375;28;44727;-77
2022/06/11 09:10:10;;;;;;;5.07;1.50;;;20.70;99.90;;;;;;5096166;28;44997;-76
2022/06/11 09:12:56;;;;;;;2.50;1.40;;;20.70;99.90;;;;;;5094168;28;46996;-76
2022/06/11 09:15:32;;;;;;;6.95;1.80;;;20.70;99.90;;;;;;5101821;28;44643;-76
2022/06/11 09:18:28;;;;;;;5.03;1.80;;;20.80;99.90;;;;;;5105780;27;44741;-76
2022/06/11 09:21:13;;;;;;;9.40;2.10;;;20.80;99.90;;;;;;5098502;27;44768;-76
2022/06/11 09:24:04;;;;;;;6.18;2.90;;;20.90;99.90;;;;;;5103748;27;45556;-76
2022/06/11 09:26:45;;;;;;;7.78;3.00;;;20.90;99.70;;;;;;5109989;27;45081;-77
2022/06/11 09:29:16;;;;;;;5.65;3.20;;;20.80;99.70;;;;;;5104726;27;45067;-77
2022/06/11 09:31:48;;;;;;;5.70;2.65;;;20.80;98.90;;;;;;5100665;28;44845;-77
2022/06/11 09:34:20;;;;;;;4.83;2.70;;;20.70;99.20;;;;;;5106441;28;45493;-77
2022/06/11 09:36:55;;;;;;;5.38;2.60;;;20.60;99.90;;;;;;5107851;28;44997;-77
2022/06/11 09:39:35;;;;;;;6.20;2.72;;;20.60;99.90;;;;;;5101170;28;45053;-77
2022/06/11 09:42:31;;;;;;;4.80;2.60;;;20.60;99.90;;;;;;5100701;28;45083;-77
2022/06/11 09:45:06;;;;;;;5.53;2.93;;;20.60;99.90;;;;;;5054673;28;47442;-78
2022/06/11 09:47:41;;;;;;;5.30;2.90;;;20.60;99.90;;;;;;5102678;28;45705;-77
2022/06/11 09:50:21;;;;;;;8.38;3.17;;;20.50;99.90;;;;;;5101653;28;44722;-77
2022/06/11 09:53:01;;;;;;;7.18;2.85;;;20.40;99.90;;;;;;5108546;28;45895;-77
2022/06/11 09:55:32;;;;;;;8.40;3.65;;;20.70;99.90;;;;;;5097771;28;47821;-76
2022/06/11 09:58:07;;;;;;;5.32;2.83;;;21.10;99.90;;;;;;5102208;28;45151;-76
2022/06/11 10:00:40;;;;;;;7.05;3.20;;;21.00;99.90;;;;;;5103936;28;45030;-78
2022/06/11 10:03:20;;;;;;;8.02;3.45;;;21.00;99.80;;;;;;5098534;28;45001;-77
2022/06/11 10:05:52;;;;;;;7.50;3.28;;;21.10;99.90;;;;;;5102399;28;47365;-77
2022/06/11 10:08:29;;;;;;;3.80;3.03;;;21.30;98.70;;;;;;5100580;28;45292;-76
2022/06/11 10:10:57;;;;;;;9.95;3.63;;;21.10;99.90;;;;;;5102462;28;45248;-78
2022/06/11 10:13:48;;;;;;;7.07;3.38;;;21.40;99.90;;;;;;5104809;28;44826;-77
2022/06/11 10:16:31;;;;;;;5.43;3.45;;;21.50;99.60;;;;;;5102656;28;46273;-77
2022/06/11 10:19:08;;;;;;;4.75;3.25;;;21.40;99.10;;;;;;5099026;28;45035;-77
2022/06/11 10:21:37;;;;;;;4.10;2.97;;;21.30;98.80;;;;;;5099989;28;44920;-77
2022/06/11 10:24:12;;;;;;;5.80;2.83;;;21.10;98.90;;;;;;5099449;28;45039;-76
2022/06/11 10:26:47;;;;;;;3.55;2.97;;;21.30;98.80;;;;;;5097775;28;47474;-76
2022/06/11 10:29:20;;;;;;;8.40;3.10;;;21.30;99.90;;;;;;5098411;28;45054;-76
2022/06/11 10:31:53;;;;;;;5.47;2.70;;;21.30;99.70;;;;;;5101249;28;44814;-76
2022/06/11 10:34:22;;;;;;;6.55;3.15;;;21.20;99.80;;;;;;5098023;28;44668;-76
2022/06/11 10:36:55;;;;;;;4.90;2.80;;;21.20;99.10;;;;;;5097148;28;45461;-76
2022/06/11 10:39:27;;;;;;;8.07;3.10;;;21.20;98.80;;;;;;5098261;28;44727;-76
2022/06/11 10:42:00;;;;;;;8.05;3.10;;;21.40;99.90;;;;;;5101428;28;44750;-76
2022/06/11 10:44:38;;;;;;;5.35;3.20;;;21.40;97.50;;;;;;5099022;28;44969;-76
2022/06/11 10:47:16;;;;;;;7.45;3.67;;;21.30;98.90;;;;;;5104659;28;46633;-76
2022/06/11 10:49:44;;;;;;;8.35;2.70;;;21.50;96.50;;;;;;5100967;28;44807;-76
2022/06/11 10:52:23;;;;;;;6.40;2.53;;;21.40;98.50;;;;;;5101672;28;45180;-76
2022/06/11 10:54:52;;;;;;;5.32;2.63;;;21.40;97.50;;;;;;5095727;28;44923;-76
2022/06/11 10:57:25;;;;;;;5.47;2.40;;;21.40;98.20;;;;;;5103537;28;47486;-76
2022/06/11 10:59:56;;;;;;;15.48;2.72;;;21.30;99.20;;;;;;5099247;28;45209;-77
2022/06/11 11:02:29;;;;;;;6.95;2.63;;;21.30;98.90;;;;;;5100319;28;44778;-77
2022/06/11 11:05:00;;;;;;;5.40;2.50;;;21.40;98.40;;;;;;5107143;28;44925;-76
2022/06/11 11:07:40;;;;;;;4.00;2.00;;;21.40;99.90;;;;;;5099162;28;47021;-77
2022/06/11 11:10:23;;;;;;;5.10;2.25;;;21.40;99.00;;;;;;5108537;28;44702;-76
2022/06/11 11:12:53;;;;;;;5.07;2.28;;;21.30;98.90;;;;;;5107389;28;44753;-76
2022/06/11 11:15:26;;;;;;;3.38;2.30;;;21.40;98.90;;;;;;5106322;28;45247;-77
2022/06/11 11:17:55;;;;;;;4.28;1.90;;;21.40;97.70;;;;;;5107200;28;45232;-77
2022/06/11 11:20:37;;;;;;;2.78;1.58;;;21.40;97.70;;;;;;5106248;28;44761;-77
2022/06/11 11:23:15;;;;;;;6.07;1.83;;;21.30;97.30;;;;;;5103218;28;44897;-77
2022/06/11 11:25:46;;;;;;;4.22;1.77;;;21.40;97.30;;;;;;5107371;28;44778;-77
2022/06/11 11:28:21;;;;;;;4.38;2.17;;;21.60;97.50;;;;;;5108515;28;46373;-77
2022/06/11 11:30:58;;;;;;;8.60;2.63;;;21.60;98.20;;;;;;5106851;28;44905;-77
2022/06/11 11:33:27;;;;;;;7.82;2.30;;;21.50;97.00;;;;;;5101449;28;44918;-77
2022/06/11 11:36:12;;;;;;;4.30;1.73;;;21.50;96.90;;;;;;5105693;28;45036;-76
2022/06/11 11:38:40;;;;;;;6.57;2.30;;;21.60;97.40;;;;;;5100877;28;44982;-77
2022/06/11 11:41:23;;;;;;;3.90;2.20;;;21.70;97.00;;;;;;5105704;28;44640;-77
2022/06/11 11:43:52;;;;;;;2.95;1.30;;;21.80;95.60;;;;;;5106348;28;44816;-77
2022/06/11 11:46:22;;;;;;;10.57;1.55;;;22.00;97.20;;;;;;5108661;28;44780;-77
2022/06/11 11:48:52;;;;;;;3.67;1.45;;;21.90;94.70;;;;;;5095856;28;46649;-77
2022/06/11 11:51:24;;;;;;;4.03;1.50;;;22.00;96.10;;;;;;5101976;28;44923;-77
2022/06/11 11:53:53;;;;;;;3.50;1.50;;;21.90;94.70;;;;;;5104995;28;44773;-77
2022/06/11 11:56:28;;;;;;;2.33;1.27;;;22.00;95.80;;;;;;5100404;28;44928;-77
2022/06/11 11:58:59;;;;;;;6.78;1.42;;;22.20;94.90;;;;;;5104237;28;46607;-77
2022/06/11 12:01:29;;;;;;;3.92;1.48;;;22.00;93.70;;;;;;5101438;28;44718;-76
2022/06/11 12:04:05;;;;;;;2.25;1.13;;;22.10;93.50;;;;;;5103555;28;44793;-76
2022/06/11 12:06:35;;;;;;;2.88;1.10;;;21.80;93.60;;;;;;5108163;28;44770;-76
2022/06/11 12:09:06;;;;;;;5.18;1.40;;;21.80;94.60;;;;;;5106768;28;46433;-76
2022/06/11 12:11:37;;;;;;;3.17;1.38;;;21.80;95.10;;;;;;5106753;28;45047;-76
2022/06/11 12:14:13;;;;;;;1.70;1.08;;;21.80;94.90;;;;;;5112920;28;44659;-76
2022/06/11 12:16:43;;;;;;;7.05;1.17;;;21.80;93.30;;;;;;5111786;28;44710;-77
2022/06/11 12:19:19;;;;;;;9.13;1.55;;;21.90;93.30;;;;;;5110323;28;46604;-76
2022/06/11 12:21:52;;;;;;;1.00;0.88;;;22.10;93.70;;;;;;5101812;28;44786;-77
2022/06/11 12:24:26;;;;;;;1.73;1.00;;;22.20;92.30;;;;;;5103299;28;44887;-77
2022/06/11 12:27:01;;;;;;;3.38;1.13;;;22.20;92.20;;;;;;5101019;28;44826;-76
2022/06/11 12:29:33;;;;;;;2.83;0.88;;;22.10;91.90;;;;;;5098539;28;46318;-74
2022/06/11 12:32:11;;;;;;;3.72;0.90;;;22.20;91.90;;;;;;5104455;28;45164;-75
2022/06/11 12:34:38;;;;;;;1.92;1.13;;;22.00;94.10;;;;;;5105454;28;44822;-76
2022/06/11 12:37:11;;;;;;;3.88;1.17;;;21.80;93.50;;;;;;5099472;28;44801;-76
2022/06/11 12:39:49;;;;;;;3.50;1.00;;;21.70;93.50;;;;;;5103179;28;46862;-76
2022/06/11 12:42:28;;;;;;;3.22;0.90;;;21.70;94.10;;;;;;5099766;28;45193;-76
2022/06/11 12:45:11;;;;;;;4.13;0.90;;;21.70;93.40;;;;;;5101311;28;44686;-76
2022/06/11 12:47:57;;;;;;;3.45;1.00;;;21.60;94.60;;;;;;5104408;28;45064;-76
2022/06/11 12:50:41;;;;;;;3.00;0.88;;;21.60;94.60;;;;;;5098099;28;46345;-76
2022/06/11 12:53:19;;;;;;;1.75;0.95;;;21.70;93.50;;;;;;5103618;28;44644;-76
2022/06/11 12:56:12;;;;;;;2.47;0.90;;;21.60;92.50;;;;;;5102520;28;44739;-76
2022/06/11 12:59:11;;;;;;;2.75;0.90;;;21.60;93.50;;;;;;5098517;28;44653;-76
2022/06/11 13:01:45;;;;;;;3.35;1.00;;;21.70;92.50;;;;;;5101263;28;45488;-76
2022/06/11 13:04:47;;;;;;;4.40;0.90;;;21.70;92.90;;;;;;5100381;28;45127;-76
2022/06/11 13:07:22;;;;;;;3.42;0.90;;;21.70;93.30;;;;;;5093982;28;44946;-76
2022/06/11 13:10:07;;;;;;;2.38;0.75;;;21.60;93.60;;;;;;5095579;28;44656;-76